Time;durP1;ratioP1;P1;durP2;ratioP2;P2;SDS_P1;SDS_P2;PMS_P1;PMS_P2;Temp;Humidity;BMP_temperature;BMP_pressure;BME280_temperature;BME280_humidity;BME280_pressure;Samples;Min_cycle;Max_cycle;Signal;HPM_P1;HPM_P2
2023/08/30 00:00:28;;;;;;;20.83;11.18;;;;;;;17.43;72.57;99181.34;5083165;28;20263;-74
2023/08/30 00:02:53;;;;;;;16.85;11.35;;;;;;;17.36;73.20;99177.16;5087902;28;20028;-74
2023/08/30 00:05:18;;;;;;;16.08;10.90;;;;;;;17.38;73.35;99185.91;5088790;28;20032;-75
2023/08/30 00:07:44;;;;;;;17.13;11.67;;;;;;;17.38;72.92;99174.88;5089074;28;20067;-73
2023/08/30 00:10:10;;;;;;;15.77;10.25;;;;;;;17.39;72.98;99172.91;5089132;28;20268;-74
2023/08/30 00:12:35;;;;;;;19.50;11.93;;;;;;;17.36;72.94;99171.63;5089481;28;20024;-74
2023/08/30 00:15:01;;;;;;;16.65;10.23;;;;;;;17.32;73.00;99170.66;5088844;28;20404;-74
2023/08/30 00:17:26;;;;;;;16.77;11.05;;;;;;;17.36;72.88;99166.13;5089855;28;20042;-74
2023/08/30 00:19:52;;;;;;;21.23;11.13;;;;;;;17.30;72.87;99167.44;5089045;28;20052;-76
2023/08/30 00:22:18;;;;;;;17.10;10.77;;;;;;;17.27;72.82;99162.53;5090269;28;20055;-75
2023/08/30 00:24:44;;;;;;;23.38;12.10;;;;;;;17.24;72.71;99169.53;5088876;28;20595;-74
2023/08/30 00:27:09;;;;;;;16.75;11.00;;;;;;;17.22;72.88;99163.53;5089207;28;20062;-74
2023/08/30 00:29:34;;;;;;;17.87;10.77;;;;;;;17.23;72.79;99167.91;5088446;28;20031;-74
2023/08/30 00:31:59;;;;;;;19.13;11.57;;;;;;;17.22;72.50;99162.72;5088693;28;20248;-74
2023/08/30 00:34:25;;;;;;;19.80;13.53;;;;;;;17.21;72.63;99169.34;5088661;28;20260;-73
2023/08/30 00:36:50;;;;;;;22.10;10.93;;;;;;;17.18;72.70;99170.00;5089582;28;20268;-74
2023/08/30 00:39:16;;;;;;;23.00;12.20;;;;;;;17.16;72.55;99167.59;5088548;28;20028;-74
2023/08/30 00:41:41;;;;;;;20.50;11.53;;;;;;;17.12;72.54;99167.44;5088951;28;20491;-74
2023/08/30 00:44:06;;;;;;;17.63;11.52;;;;;;;17.14;72.56;99169.84;5088166;28;20264;-74
2023/08/30 00:46:33;;;;;;;21.80;11.98;;;;;;;17.19;72.73;99160.63;5090137;28;20028;-74
2023/08/30 00:49:00;;;;;;;15.65;11.10;;;;;;;17.17;72.62;99163.69;5088980;28;20085;-73
2023/08/30 00:51:26;;;;;;;17.92;11.38;;;;;;;17.19;72.31;99157.88;5088946;28;20115;-75
2023/08/30 00:53:51;;;;;;;17.52;12.10;;;;;;;17.18;72.26;99153.50;5085083;28;20118;-76
2023/08/30 00:56:17;;;;;;;19.02;11.25;;;;;;;17.13;72.34;99151.69;5086894;28;20032;-74
2023/08/30 00:58:42;;;;;;;20.67;11.13;;;;;;;17.05;72.01;99150.53;5088520;28;20085;-75
2023/08/30 01:01:08;;;;;;;17.87;11.13;;;;;;;17.00;72.27;99151.50;5087592;28;20030;-74
2023/08/30 01:03:34;;;;;;;21.52;11.25;;;;;;;17.00;72.32;99153.47;5088057;28;20973;-75
2023/08/30 01:05:59;;;;;;;21.45;13.05;;;;;;;17.01;72.54;99141.31;5088246;28;20101;-74
2023/08/30 01:08:25;;;;;;;20.73;12.13;;;;;;;16.98;72.68;99141.97;5087301;28;20463;-74
2023/08/30 01:11:02;;;;;;;18.20;11.80;;;;;;;17.01;72.39;99139.38;5087795;28;20036;-73
2023/08/30 01:13:31;;;;;;;18.90;12.18;;;;;;;17.08;72.35;99127.88;5086912;28;20020;-74
2023/08/30 01:15:57;;;;;;;22.40;12.88;;;;;;;17.06;72.21;99135.66;5087796;28;20071;-74
2023/08/30 01:18:26;;;;;;;23.58;12.23;;;;;;;16.98;72.43;99123.50;5087402;28;20143;-74
2023/08/30 01:20:53;;;;;;;19.85;12.98;;;;;;;17.00;72.39;99125.94;5087002;28;20115;-74
2023/08/30 01:23:48;;;;;;;21.52;14.43;;;;;;;16.96;71.87;99119.44;5087449;28;20039;-73
2023/08/30 01:26:24;;;;;;;17.80;12.45;;;;;;;16.97;72.17;99124.63;5087475;28;20039;-74
2023/08/30 01:28:52;;;;;;;20.85;14.05;;;;;;;16.89;72.49;99126.25;5087459;28;20547;-74
2023/08/30 01:31:21;;;;;;;20.20;12.75;;;;;;;16.88;72.39;99124.63;5087367;28;20046;-73
2023/08/30 01:33:46;;;;;;;26.05;12.68;;;;;;;16.82;72.28;99117.66;5087125;28;20032;-73
2023/08/30 01:36:12;;;;;;;22.23;12.45;;;;;;;16.79;72.41;99115.56;5087676;28;20439;-74
2023/08/30 01:38:39;;;;;;;20.15;13.73;;;;;;;16.79;72.36;99110.88;5087172;28;20060;-75
2023/08/30 01:41:04;;;;;;;22.83;13.32;;;;;;;16.74;72.54;99118.47;5085846;28;20039;-73
2023/08/30 01:43:31;;;;;;;23.65;15.38;;;;;;;16.81;72.41;99116.03;5087094;28;20032;-74
2023/08/30 01:45:58;;;;;;;20.10;13.38;;;;;;;16.78;72.47;99113.94;5086955;28;20271;-74
2023/08/30 01:48:26;;;;;;;24.90;15.18;;;;;;;16.77;72.57;99112.31;5086885;28;20111;-74
2023/08/30 01:50:51;;;;;;;25.48;15.45;;;;;;;16.69;72.77;99117.50;5085405;28;20036;-75
2023/08/30 01:53:17;;;;;;;23.50;14.10;;;;;;;16.71;73.11;99113.59;5085270;28;20036;-81
2023/08/30 01:55:42;;;;;;;22.95;14.05;;;;;;;16.72;72.93;99115.25;5091233;28;20106;-82
2023/08/30 01:58:08;;;;;;;22.77;14.10;;;;;;;16.72;73.01;99115.25;5090556;28;20032;-81
2023/08/30 02:00:37;;;;;;;23.85;14.15;;;;;;;16.81;72.88;99107.78;5091316;28;20031;-81
2023/08/30 02:03:13;;;;;;;22.88;15.32;;;;;;;16.91;72.40;99118.47;5090647;28;20056;-82
2023/08/30 02:06:02;;;;;;;26.30;16.50;;;;;;;16.91;72.08;99115.72;5088502;28;20097;-81
2023/08/30 02:08:37;;;;;;;26.98;15.82;;;;;;;16.86;72.70;99115.09;5085511;28;20065;-81
2023/08/30 02:11:07;;;;;;;26.27;15.93;;;;;;;16.90;72.86;99110.56;5088352;28;20032;-79
2023/08/30 02:13:33;;;;;;;24.40;15.98;;;;;;;16.90;73.23;99124.31;5088905;28;20087;-81
2023/08/30 02:16:00;;;;;;;27.48;15.80;;;;;;;17.01;72.79;99119.28;5089824;28;20119;-80
2023/08/30 02:18:26;;;;;;;26.60;16.65;;;;;;;17.02;72.55;99116.19;5089779;28;20074;-81
2023/08/30 02:20:52;;;;;;;22.75;15.57;;;;;;;17.07;72.60;99126.25;5090222;28;20461;-82
2023/08/30 02:23:17;;;;;;;22.33;15.13;;;;;;;17.15;72.41;99117.19;5089640;28;20034;-82
2023/08/30 02:25:43;;;;;;;24.60;16.08;;;;;;;17.15;72.10;99121.91;5089338;28;20066;-81
2023/08/30 02:28:08;;;;;;;27.50;15.88;;;;;;;17.07;72.42;99114.41;5088966;28;20077;-81
2023/08/30 02:30:33;;;;;;;25.83;17.13;;;;;;;17.02;72.88;99126.41;5089895;28;20043;-81
2023/08/30 02:32:58;;;;;;;27.17;15.67;;;;;;;16.91;73.21;99118.47;5089952;28;20028;-81
2023/08/30 02:35:24;;;;;;;27.23;16.33;;;;;;;16.89;73.19;99123.50;5091069;28;20287;-81
2023/08/30 02:37:49;;;;;;;35.40;16.48;;;;;;;16.90;73.10;99122.34;5091545;28;20048;-81
2023/08/30 02:40:15;;;;;;;23.98;16.65;;;;;;;16.84;73.79;99120.88;5090827;28;20077;-81
2023/08/30 02:42:40;;;;;;;26.02;15.70;;;;;;;16.87;73.24;99117.50;5089957;28;20042;-81
2023/08/30 02:45:06;;;;;;;23.10;14.65;;;;;;;16.85;73.09;99106.00;5089451;28;20039;-80
2023/08/30 02:47:31;;;;;;;28.17;17.02;;;;;;;16.77;73.23;99101.31;5089834;28;20110;-81
2023/08/30 02:49:56;;;;;;;28.13;17.88;;;;;;;16.70;73.25;99104.53;5091390;28;20069;-82
2023/08/30 02:52:21;;;;;;;24.77;16.70;;;;;;;16.61;73.77;99099.03;5091929;28;20050;-81
2023/08/30 02:54:47;;;;;;;27.70;15.30;;;;;;;16.61;73.78;99101.78;5092231;28;20298;-82
2023/08/30 02:57:12;;;;;;;24.80;16.23;;;;;;;16.73;73.44;99103.91;5091129;28;21035;-81
2023/08/30 02:59:37;;;;;;;23.77;16.47;;;;;;;16.74;73.04;99112.97;5090581;28;20252;-81
2023/08/30 03:02:02;;;;;;;24.17;16.17;;;;;;;16.72;73.32;99107.78;5091473;28;20244;-81
2023/08/30 03:04:28;;;;;;;26.73;16.27;;;;;;;16.76;73.41;99105.22;5090175;28;20265;-83
2023/08/30 03:06:53;;;;;;;30.63;17.80;;;;;;;16.72;73.26;99102.25;5091166;28;20116;-81
2023/08/30 03:09:18;;;;;;;31.30;16.45;;;;;;;16.71;73.28;99108.09;5091571;28;20397;-82
2023/08/30 03:11:44;;;;;;;28.23;17.60;;;;;;;16.72;73.73;99098.72;5091637;28;20043;-83
2023/08/30 03:14:09;;;;;;;28.13;17.42;;;;;;;16.76;73.61;99106.00;5087047;28;20274;-74
2023/08/30 03:16:34;;;;;;;34.00;19.75;;;;;;;16.84;73.05;99098.88;5086282;28;20176;-74
2023/08/30 03:19:00;;;;;;;28.38;18.10;;;;;;;16.73;73.25;99101.16;5086159;28;21125;-74
2023/08/30 03:21:25;;;;;;;28.83;18.23;;;;;;;16.76;73.32;99094.19;5086287;28;20040;-74
2023/08/30 03:23:50;;;;;;;30.87;18.20;;;;;;;16.72;73.47;99093.22;5085780;28;20043;-74
2023/08/30 03:26:16;;;;;;;27.57;17.53;;;;;;;16.64;73.47;99087.38;5085900;28;20379;-75
2023/08/30 03:28:43;;;;;;;32.05;19.98;;;;;;;16.57;73.31;99084.31;5085810;28;20269;-74
2023/08/30 03:31:13;;;;;;;31.42;18.92;;;;;;;16.53;73.28;99083.31;5082160;28;20062;-75
2023/08/30 03:33:41;;;;;;;31.33;20.60;;;;;;;16.43;73.61;99078.94;5083880;28;20043;-74
2023/08/30 03:36:08;;;;;;;35.13;21.95;;;;;;;16.43;74.20;99081.69;5083688;28;20040;-74
2023/08/30 03:38:33;;;;;;;29.67;19.35;;;;;;;16.38;73.97;99063.41;5085970;28;20091;-74
2023/08/30 03:40:58;;;;;;;32.55;20.80;;;;;;;16.39;73.75;99076.03;5085711;28;20603;-73
2023/08/30 03:43:24;;;;;;;38.60;22.60;;;;;;;16.37;73.93;99071.97;5084990;28;20036;-73
2023/08/30 03:45:49;;;;;;;36.42;23.70;;;;;;;16.35;74.20;99083.31;5085411;28;20265;-74
2023/08/30 03:48:14;;;;;;;42.03;25.50;;;;;;;16.30;74.58;99075.19;5084508;28;21342;-74
2023/08/30 03:50:40;;;;;;;38.75;23.67;;;;;;;16.29;75.01;99081.84;5085421;28;20103;-74
2023/08/30 03:53:05;;;;;;;39.97;24.20;;;;;;;16.20;75.43;99079.03;5085283;28;20493;-74
2023/08/30 03:55:30;;;;;;;39.42;24.42;;;;;;;16.21;75.01;99081.47;5084275;28;20280;-75
2023/08/30 03:57:55;;;;;;;37.17;23.20;;;;;;;16.23;74.92;99089.44;5085436;28;20086;-74
2023/08/30 04:00:21;;;;;;;44.20;26.03;;;;;;;16.19;74.98;99083.72;5083805;28;20353;-74
2023/08/30 04:02:47;;;;;;;38.35;23.42;;;;;;;16.21;75.27;99080.69;5085434;28;20259;-74
2023/08/30 04:05:12;;;;;;;47.67;27.17;;;;;;;16.15;75.13;99077.25;5084576;28;20036;-74
2023/08/30 04:07:38;;;;;;;34.35;23.80;;;;;;;16.13;75.31;99079.50;5085253;28;20040;-74
2023/08/30 04:10:06;;;;;;;41.15;22.67;;;;;;;16.14;75.28;99075.63;5084783;28;20024;-74
2023/08/30 04:12:32;;;;;;;37.42;22.92;;;;;;;16.15;75.49;99071.75;5085731;28;20036;-81
2023/08/30 04:14:57;;;;;;;35.17;22.33;;;;;;;16.11;75.26;99076.25;5088306;28;20731;-81
2023/08/30 04:17:23;;;;;;;41.35;24.15;;;;;;;16.08;75.05;99074.16;5086087;28;20032;-82
2023/08/30 04:19:51;;;;;;;43.75;24.90;;;;;;;16.06;75.24;99068.19;5082889;28;20032;-81
2023/08/30 04:22:16;;;;;;;40.03;24.80;;;;;;;16.05;74.86;99072.06;5084144;28;20051;-82
2023/08/30 04:24:42;;;;;;;35.13;21.67;;;;;;;16.03;74.92;99072.38;5085627;28;20040;-81
2023/08/30 04:27:07;;;;;;;41.30;24.67;;;;;;;15.96;75.23;99063.75;5087541;28;20382;-81
2023/08/30 04:29:32;;;;;;;40.70;24.93;;;;;;;15.97;74.67;99060.69;5089130;28;21433;-82
2023/08/30 04:31:58;;;;;;;41.70;25.57;;;;;;;15.93;75.29;99059.69;5086678;28;20367;-81
2023/08/30 04:34:23;;;;;;;37.88;23.17;;;;;;;15.92;75.39;99057.28;5088868;28;20745;-82
2023/08/30 04:36:48;;;;;;;43.50;25.88;;;;;;;15.93;75.69;99062.44;5089139;28;20642;-81
2023/08/30 04:39:13;;;;;;;37.60;23.50;;;;;;;15.94;75.16;99060.50;5087270;28;20024;-83
2023/08/30 04:41:39;;;;;;;35.47;21.85;;;;;;;15.93;75.25;99059.69;5087146;28;20261;-82
2023/08/30 04:44:04;;;;;;;38.87;24.97;;;;;;;15.94;74.70;99055.84;5086446;28;20059;-81
2023/08/30 04:46:29;;;;;;;38.70;25.00;;;;;;;15.91;75.01;99056.44;5088642;28;20261;-82
2023/08/30 04:48:55;;;;;;;44.20;23.75;;;;;;;15.88;75.52;99051.59;5092115;28;20027;-82
2023/08/30 04:51:20;;;;;;;39.70;25.77;;;;;;;15.87;74.85;99066.47;5091710;28;20047;-82
2023/08/30 04:53:45;;;;;;;37.13;21.87;;;;;;;15.81;75.62;99056.72;5091200;28;20371;-81
2023/08/30 04:56:12;;;;;;;38.85;25.00;;;;;;;15.92;75.89;99052.59;5090802;28;20288;-83
2023/08/30 04:58:37;;;;;;;39.65;24.73;;;;;;;15.96;75.66;99052.75;5092288;28;20040;-81
2023/08/30 05:01:02;;;;;;;37.90;25.50;;;;;;;15.98;75.27;99048.56;5091846;28;20124;-82
2023/08/30 05:03:28;;;;;;;37.50;23.03;;;;;;;15.95;75.30;99046.44;5090956;28;20261;-80
2023/08/30 05:05:53;;;;;;;51.13;25.85;;;;;;;15.91;75.08;99044.66;5089092;28;20341;-82
2023/08/30 05:08:18;;;;;;;46.73;25.87;;;;;;;15.87;75.24;99038.97;5086633;28;20044;-82
2023/08/30 05:10:43;;;;;;;51.43;28.90;;;;;;;15.69;75.83;99032.59;5086191;28;20252;-81
2023/08/30 05:13:09;;;;;;;44.93;26.43;;;;;;;15.55;76.59;99022.53;5085592;28;20272;-76
2023/08/30 05:15:34;;;;;;;42.53;26.55;;;;;;;15.39;77.19;99025.72;5084728;28;20277;-76
2023/08/30 05:18:00;;;;;;;44.77;26.83;;;;;;;15.43;77.60;99025.88;5085439;28;20135;-79
2023/08/30 05:20:25;;;;;;;39.93;25.17;;;;;;;15.46;77.63;99017.00;5085100;28;20264;-76
2023/08/30 05:22:50;;;;;;;48.13;27.33;;;;;;;15.61;78.09;99010.28;5085270;28;20267;-76
2023/08/30 05:25:15;;;;;;;44.17;27.77;;;;;;;15.64;77.22;99015.13;5084397;28;20693;-75
2023/08/30 05:27:41;;;;;;;45.17;27.42;;;;;;;15.76;77.68;99011.00;5084946;28;20275;-77
2023/08/30 05:30:06;;;;;;;40.87;27.60;;;;;;;15.91;77.39;99014.41;5083713;28;20063;-77
2023/08/30 05:32:32;;;;;;;44.75;26.73;;;;;;;16.01;77.20;99005.88;5085405;28;20776;-78
2023/08/30 05:34:59;;;;;;;48.03;26.17;;;;;;;16.06;76.74;99002.19;5084386;28;20039;-78
2023/08/30 05:37:24;;;;;;;47.78;27.73;;;;;;;16.09;76.80;99004.28;5085441;28;20524;-78
2023/08/30 05:39:50;;;;;;;47.67;26.07;;;;;;;16.14;76.62;98995.91;5084693;28;20144;-78
2023/08/30 05:42:15;;;;;;;45.88;30.27;;;;;;;16.16;76.26;98984.59;5084614;28;20321;-77
2023/08/30 05:44:40;;;;;;;49.43;26.90;;;;;;;16.16;76.60;98988.16;5084309;28;20122;-77
2023/08/30 05:47:05;;;;;;;41.23;25.13;;;;;;;16.20;76.70;98983.63;5084083;28;20272;-78
2023/08/30 05:49:31;;;;;;;37.97;25.53;;;;;;;16.22;76.33;98981.38;5084014;28;20264;-76
2023/08/30 05:51:56;;;;;;;44.15;26.52;;;;;;;16.33;76.05;98975.56;5084756;28;20292;-81
2023/08/30 05:54:21;;;;;;;42.47;26.13;;;;;;;16.36;75.99;98966.63;5084355;28;20043;-78
2023/08/30 05:56:47;;;;;;;43.83;24.90;;;;;;;16.39;76.01;98963.25;5084213;28;20811;-78
2023/08/30 05:59:12;;;;;;;40.45;26.48;;;;;;;16.50;75.41;98963.72;5083208;28;20036;-78
2023/08/30 06:01:38;;;;;;;39.95;23.92;;;;;;;16.59;75.13;98969.22;5084553;28;20434;-78
2023/08/30 06:04:04;;;;;;;55.55;25.48;;;;;;;16.63;74.93;98964.69;5083853;28;20089;-79
2023/08/30 06:06:29;;;;;;;39.40;26.05;;;;;;;16.64;74.85;98970.97;5083930;28;20504;-77
2023/08/30 06:08:55;;;;;;;38.25;23.40;;;;;;;16.66;74.64;98964.03;5084218;28;20032;-76
2023/08/30 06:11:20;;;;;;;51.50;26.67;;;;;;;16.68;74.46;98972.78;5082884;28;20035;-77
2023/08/30 06:13:45;;;;;;;50.00;27.37;;;;;;;16.66;74.95;98972.28;5083608;28;20059;-73
2023/08/30 06:16:10;;;;;;;40.95;24.83;;;;;;;16.64;74.89;98980.06;5083728;28;20812;-80
2023/08/30 06:18:37;;;;;;;33.73;22.47;;;;;;;16.60;74.89;98972.78;5083813;28;20073;-79
2023/08/30 06:21:03;;;;;;;42.90;26.20;;;;;;;16.59;75.16;98974.72;5083970;28;20268;-78
2023/08/30 06:23:29;;;;;;;46.55;27.60;;;;;;;16.50;75.47;98971.16;5083665;28;20055;-76
2023/08/30 06:25:56;;;;;;;39.70;25.05;;;;;;;16.40;76.18;98967.59;5084048;28;20036;-78
2023/08/30 06:28:21;;;;;;;40.75;23.83;;;;;;;16.55;75.68;98969.06;5083362;28;20409;-79
2023/08/30 06:30:46;;;;;;;39.95;24.98;;;;;;;16.65;75.21;98967.13;5083453;28;20036;-78
2023/08/30 06:33:12;;;;;;;38.40;23.97;;;;;;;16.72;74.93;98978.44;5083714;28;20058;-77
2023/08/30 06:35:39;;;;;;;47.00;28.48;;;;;;;16.81;74.81;98970.16;5082392;28;20289;-78
2023/08/30 06:38:04;;;;;;;41.05;24.75;;;;;;;16.89;74.56;98966.59;5083526;28;20035;-77
2023/08/30 06:40:30;;;;;;;40.55;27.05;;;;;;;16.90;74.51;98962.69;5083132;28;20032;-78
2023/08/30 06:42:55;;;;;;;39.70;25.65;;;;;;;16.90;74.69;98954.44;5083463;28;20032;-78
2023/08/30 06:45:20;;;;;;;41.30;27.08;;;;;;;16.93;74.73;98955.72;5082922;28;20040;-79
2023/08/30 06:47:48;;;;;;;40.75;25.80;;;;;;;16.98;74.67;98952.00;5081902;28;20387;-76
2023/08/30 06:50:13;;;;;;;38.97;25.23;;;;;;;16.99;74.39;98957.16;5081611;28;20089;-75
2023/08/30 06:52:38;;;;;;;38.22;23.30;;;;;;;17.06;74.34;98959.44;5082887;28;20032;-74
2023/08/30 06:55:04;;;;;;;42.63;24.17;;;;;;;17.06;74.16;98951.19;5082273;28;20089;-75
2023/08/30 06:57:30;;;;;;;34.45;22.25;;;;;;;17.08;74.21;98959.91;5082914;28;20453;-75
2023/08/30 06:59:55;;;;;;;35.40;22.17;;;;;;;17.08;73.75;98953.59;5082506;28;20524;-75
2023/08/30 07:02:20;;;;;;;33.05;20.88;;;;;;;17.07;74.18;98944.50;5080698;27;20289;-75
2023/08/30 07:04:46;;;;;;;34.60;21.50;;;;;;;17.06;74.32;98950.34;5082718;28;20047;-74
2023/08/30 07:07:12;;;;;;;34.35;23.20;;;;;;;17.07;74.21;98947.28;5081481;28;20337;-74
2023/08/30 07:09:38;;;;;;;32.45;20.73;;;;;;;17.11;74.16;98933.66;5083260;28;20413;-74
2023/08/30 07:12:03;;;;;;;32.40;20.97;;;;;;;17.04;74.26;98934.97;5082533;28;20052;-75
2023/08/30 07:14:29;;;;;;;40.33;19.80;;;;;;;17.08;74.22;98940.63;5082394;28;20361;-75
2023/08/30 07:16:54;;;;;;;30.23;20.13;;;;;;;17.12;74.02;98935.28;5083341;28;20043;-74
2023/08/30 07:19:19;;;;;;;32.38;19.63;;;;;;;17.23;73.71;98932.97;5083846;28;20257;-74
2023/08/30 07:21:44;;;;;;;29.93;18.37;;;;;;;17.28;73.24;98943.84;5082410;28;20036;-74
2023/08/30 07:24:10;;;;;;;30.65;19.33;;;;;;;17.26;73.09;98935.09;5081353;28;20339;-74
2023/08/30 07:26:36;;;;;;;33.67;20.95;;;;;;;17.35;73.06;98932.31;5081914;28;20067;-74
2023/08/30 07:29:04;;;;;;;26.92;18.45;;;;;;;17.37;72.96;98936.31;5081893;28;20112;-74
2023/08/30 07:31:30;;;;;;;24.88;17.48;;;;;;;17.36;72.21;98931.16;5083220;28;20103;-74
2023/08/30 07:33:56;;;;;;;25.23;16.13;;;;;;;17.32;72.30;98928.25;5082568;28;20138;-75
2023/08/30 07:36:21;;;;;;;25.25;16.25;;;;;;;17.32;71.76;98933.78;5081878;28;20040;-73
2023/08/30 07:38:47;;;;;;;23.47;15.20;;;;;;;17.34;72.21;98930.69;5083277;28;20393;-76
2023/08/30 07:41:12;;;;;;;24.80;16.57;;;;;;;17.39;71.66;98928.53;5083317;28;20282;-76
2023/08/30 07:43:38;;;;;;;24.50;14.43;;;;;;;17.36;71.58;98920.94;5082713;28;20282;-74
2023/08/30 07:46:03;;;;;;;20.57;13.43;;;;;;;17.49;70.91;98923.81;5083040;28;20093;-72
2023/08/30 07:48:28;;;;;;;24.38;14.43;;;;;;;17.49;70.87;98908.06;5083355;28;20742;-73
2023/08/30 07:50:54;;;;;;;19.13;13.02;;;;;;;17.54;70.37;98918.09;5082788;28;20032;-73
2023/08/30 07:53:19;;;;;;;18.80;12.83;;;;;;;17.59;70.50;98915.13;5083314;28;20052;-77
2023/08/30 07:55:50;;;;;;;21.38;13.20;;;;;;;17.69;70.12;98921.44;5082969;28;20759;-79
2023/08/30 07:58:17;;;;;;;22.58;12.85;;;;;;;17.76;70.33;98924.44;5082767;28;20556;-79
2023/08/30 08:00:42;;;;;;;18.15;11.48;;;;;;;17.79;69.46;98921.03;5083266;28;20039;-79
2023/08/30 08:03:07;;;;;;;17.67;10.35;;;;;;;17.79;68.92;98923.81;5082391;28;20036;-79
2023/08/30 08:05:33;;;;;;;21.35;10.75;;;;;;;17.83;68.80;98919.22;5082649;28;20035;-79
2023/08/30 08:08:00;;;;;;;17.10;10.07;;;;;;;17.85;68.48;98922.47;5083112;28;20044;-79
2023/08/30 08:10:25;;;;;;;18.98;11.10;;;;;;;17.92;67.96;98915.63;5083258;28;20634;-79
2023/08/30 08:12:51;;;;;;;18.13;10.37;;;;;;;17.90;68.18;98920.66;5079644;28;20055;-77
2023/08/30 08:15:16;;;;;;;16.20;9.70;;;;;;;18.01;67.89;98919.09;5082429;28;20285;-79
2023/08/30 08:17:41;;;;;;;16.73;9.63;;;;;;;18.07;67.65;98915.00;5083364;28;20032;-78
2023/08/30 08:20:07;;;;;;;13.45;9.35;;;;;;;18.12;68.12;98910.44;5082648;28;20039;-80
2023/08/30 08:22:33;;;;;;;16.42;9.93;;;;;;;18.22;66.54;98918.31;5085392;28;20061;-80
2023/08/30 08:24:58;;;;;;;14.57;8.18;;;;;;;18.29;67.31;98921.34;5086153;28;20116;-80
2023/08/30 08:27:26;;;;;;;12.15;7.85;;;;;;;18.27;65.77;98915.34;5087565;28;20043;-79
2023/08/30 08:29:51;;;;;;;14.23;7.63;;;;;;;18.24;64.68;98916.03;5086314;28;20044;-80
2023/08/30 08:32:17;;;;;;;13.48;6.43;;;;;;;18.26;63.27;98919.28;5086967;28;20378;-79
2023/08/30 08:34:42;;;;;;;13.88;6.13;;;;;;;18.27;62.79;98901.56;5086342;28;20071;-78
2023/08/30 08:37:07;;;;;;;12.80;6.78;;;;;;;18.34;62.33;98914.00;5086175;28;20548;-79
2023/08/30 08:39:33;;;;;;;11.18;6.07;;;;;;;18.42;63.33;98913.13;5086255;28;20564;-78
2023/08/30 08:42:00;;;;;;;10.50;5.32;;;;;;;18.47;62.80;98910.13;5087079;28;20533;-78
2023/08/30 08:44:27;;;;;;;10.15;4.97;;;;;;;18.49;62.69;98916.13;5085788;28;20245;-80
2023/08/30 08:46:53;;;;;;;8.38;5.43;;;;;;;18.59;62.33;98911.34;5086787;28;20027;-79
2023/08/30 08:49:18;;;;;;;8.52;5.15;;;;;;;18.62;61.24;98907.88;5086620;28;20051;-79
2023/08/30 08:51:45;;;;;;;9.65;5.20;;;;;;;18.59;60.81;98914.09;5086966;28;20043;-79
2023/08/30 08:54:11;;;;;;;10.27;5.38;;;;;;;18.62;60.38;98905.13;5085501;28;20040;-79
2023/08/30 08:56:37;;;;;;;10.48;5.22;;;;;;;18.69;61.40;98910.09;5086151;28;20046;-81
2023/08/30 08:59:05;;;;;;;11.00;5.72;;;;;;;18.69;60.37;98901.81;5085634;28;20055;-80
2023/08/30 09:01:33;;;;;;;12.02;5.00;;;;;;;18.71;60.10;98903.09;5086540;28;20113;-78
2023/08/30 09:03:59;;;;;;;10.32;5.03;;;;;;;18.86;60.76;98901.63;5084297;28;20044;-72
2023/08/30 09:06:25;;;;;;;15.70;5.68;;;;;;;18.94;60.04;98913.72;5086222;28;20044;-72
2023/08/30 09:08:50;;;;;;;9.55;5.32;;;;;;;19.03;60.44;98905.34;5085790;28;20508;-73
2023/08/30 09:11:16;;;;;;;9.38;4.85;;;;;;;19.08;59.50;98898.81;5085611;28;20031;-73
2023/08/30 09:13:44;;;;;;;7.20;4.05;;;;;;;19.14;60.15;98897.44;5085619;28;20058;-73
2023/08/30 09:16:14;;;;;;;10.23;5.10;;;;;;;19.10;58.74;98894.53;5085577;28;20493;-74
2023/08/30 09:18:40;;;;;;;8.35;3.50;;;;;;;19.22;59.33;98895.72;5085511;28;20052;-74
2023/08/30 09:21:07;;;;;;;10.70;5.28;;;;;;;19.33;59.55;98888.59;5085350;28;20032;-72
2023/08/30 09:23:33;;;;;;;9.50;5.00;;;;;;;19.38;59.06;98884.78;5085269;28;20101;-72
2023/08/30 09:25:59;;;;;;;8.32;4.25;;;;;;;19.38;58.15;98892.28;5085577;28;20036;-72
2023/08/30 09:28:24;;;;;;;8.68;4.78;;;;;;;19.41;58.23;98886.84;5085243;28;20160;-72
2023/08/30 09:30:50;;;;;;;10.50;5.68;;;;;;;19.43;57.84;98890.06;5085458;28;20024;-74
2023/08/30 09:33:20;;;;;;;8.77;4.38;;;;;;;19.48;58.28;98884.34;5084264;28;20075;-73
2023/08/30 09:35:45;;;;;;;9.63;5.32;;;;;;;19.39;57.93;98880.88;5085016;28;20425;-74
2023/08/30 09:38:18;;;;;;;11.77;5.43;;;;;;;19.33;58.12;98876.72;5085334;28;20036;-72
2023/08/30 09:40:44;;;;;;;10.45;5.60;;;;;;;19.34;58.66;98876.38;5085699;28;20342;-72
2023/08/30 09:43:10;;;;;;;8.88;5.30;;;;;;;19.35;58.40;98877.19;5085270;28;20046;-72
2023/08/30 09:45:36;;;;;;;10.63;5.10;;;;;;;19.41;58.30;98873.03;5085055;28;20044;-75
2023/08/30 09:48:01;;;;;;;9.68;4.85;;;;;;;19.36;57.92;98874.06;5084521;28;20043;-72
2023/08/30 09:50:33;;;;;;;10.45;4.88;;;;;;;19.46;58.61;98867.28;5084946;28;20453;-73
2023/08/30 09:52:59;;;;;;;10.45;5.15;;;;;;;19.41;58.83;98859.22;5083561;28;20068;-72
2023/08/30 09:55:25;;;;;;;11.90;5.60;;;;;;;19.43;57.95;98859.69;5084398;28;20055;-73
2023/08/30 09:57:51;;;;;;;10.70;5.75;;;;;;;19.47;58.96;98857.84;5083761;28;20089;-73
2023/08/30 10:00:16;;;;;;;12.10;5.32;;;;;;;19.52;59.09;98858.75;5084783;28;20485;-73
2023/08/30 10:02:43;;;;;;;12.75;5.57;;;;;;;19.38;59.11;98859.91;5085152;28;20024;-73
2023/08/30 10:05:09;;;;;;;9.45;6.10;;;;;;;19.47;59.01;98857.84;5083841;28;20622;-73
2023/08/30 10:07:43;;;;;;;12.00;5.95;;;;;;;19.53;59.37;98854.81;5084143;28;20056;-82
2023/08/30 10:10:10;;;;;;;15.80;5.78;;;;;;;19.44;60.06;98864.06;5083683;28;20048;-80
2023/08/30 10:12:36;;;;;;;10.75;5.65;;;;;;;19.36;59.99;98867.75;5085725;28;20452;-82
2023/08/30 10:15:02;;;;;;;13.45;6.97;;;;;;;19.13;60.68;98860.72;5084332;28;20036;-80
2023/08/30 10:17:32;;;;;;;13.40;6.78;;;;;;;19.05;61.33;98858.03;5085283;28;20242;-79
2023/08/30 10:19:59;;;;;;;10.90;6.30;;;;;;;19.08;63.75;98863.69;5084505;28;20051;-81
2023/08/30 10:22:25;;;;;;;20.35;7.80;;;;;;;19.01;66.80;98875.31;5085193;28;20036;-80
2023/08/30 10:24:57;;;;;;;16.38;7.57;;;;;;;19.01;68.82;98863.47;5084390;28;20051;-79
2023/08/30 10:27:24;;;;;;;13.63;8.60;;;;;;;19.01;70.04;98867.03;5084400;28;20032;-78
2023/08/30 10:29:51;;;;;;;14.90;9.30;;;;;;;19.02;70.71;98863.09;5084608;28;20122;-79
2023/08/30 10:32:21;;;;;;;12.90;8.45;;;;;;;18.99;71.51;98852.75;5084961;28;20615;-78
2023/08/30 10:34:51;;;;;;;14.63;9.02;;;;;;;18.91;72.04;98848.16;5084138;28;20127;-79
2023/08/30 10:37:23;;;;;;;13.13;8.98;;;;;;;18.89;72.54;98839.41;5084797;28;20078;-79
2023/08/30 10:39:49;;;;;;;17.48;9.95;;;;;;;18.92;72.35;98849.75;5085046;28;20111;-77
2023/08/30 10:42:16;;;;;;;12.25;7.72;;;;;;;18.94;72.90;98852.97;5084788;28;20231;-80
2023/08/30 10:44:56;;;;;;;15.27;8.15;;;;;;;18.91;72.84;98856.44;5083873;28;20813;-79
2023/08/30 10:47:29;;;;;;;12.60;9.20;;;;;;;18.94;73.58;98855.72;5084677;28;20036;-79
2023/08/30 10:50:04;;;;;;;12.30;9.27;;;;;;;18.93;74.42;98851.38;5084196;28;20048;-79
2023/08/30 10:52:29;;;;;;;13.30;9.45;;;;;;;18.92;74.31;98859.97;5084196;28;20040;-79
2023/08/30 10:55:14;;;;;;;15.63;9.00;;;;;;;18.92;74.90;98860.78;5083413;28;20051;-79
2023/08/30 10:57:45;;;;;;;11.55;9.65;;;;;;;18.90;74.68;98866.66;5083839;28;20027;-80
2023/08/30 11:00:21;;;;;;;13.18;8.38;;;;;;;18.89;75.21;98861.50;5083737;28;20048;-79
2023/08/30 11:02:48;;;;;;;14.63;9.43;;;;;;;18.94;75.53;98858.50;5084380;28;20035;-79
2023/08/30 11:05:19;;;;;;;15.10;9.02;;;;;;;18.93;75.55;98859.66;5083499;28;20040;-79
2023/08/30 11:07:45;;;;;;;16.48;8.80;;;;;;;18.92;74.81;98863.56;5084148;28;20074;-79
2023/08/30 11:10:10;;;;;;;12.35;8.85;;;;;;;18.92;75.43;98859.97;5083655;28;20044;-79
2023/08/30 11:12:35;;;;;;;12.75;8.57;;;;;;;18.89;75.54;98867.81;5084556;28;20097;-79
2023/08/30 11:15:02;;;;;;;11.90;6.95;;;;;;;18.66;74.44;98861.91;5082793;28;20141;-79